Anadarko, Oklahoma
Current Conditions -  °F | °C
As of 10:58 AM on Thursday 30 Oct 2014 (Local Time) from KFSI Reporting Station
Few Clouds Few Clouds  
Wind Chill: 18°   Ceiling: Unl
Heat Index: 18°   Visibility: 10mi
Dew Point:   Wind: 7mph
Humidity: 54%   Direction: 240°WSW
Pressure: 30.14"   Gusts: NA
Location:  35.07°N, 98.24°W
Report Text: KFSI 301558Z AUTO 24006KT 10SM FEW050 18/09 A3014 RMK AO2 SLPNO T01830088
Loading
Personal Weather Stations






























Interactive Weather Map
Tropical Storm Tracking
New forecast layout! Learn more

10-Day Weather Forecast

Advertisements
Track Severe Weather on mobile